createdAt,value
2019-03-06T00:01:03.705Z,6.35
2019-03-06T00:03:34.400Z,6.40
2019-03-06T00:06:16.244Z,6.45
2019-03-06T00:08:41.518Z,6.51
2019-03-06T00:11:14.440Z,6.57
2019-03-06T00:13:44.830Z,6.63
2019-03-06T00:16:17.246Z,6.64
2019-03-06T00:18:49.640Z,6.68
2019-03-06T00:21:21.797Z,6.63
2019-03-06T00:23:53.639Z,6.59
2019-03-06T00:26:27.537Z,6.60
2019-03-06T00:28:57.528Z,6.56
2019-03-06T00:31:28.760Z,6.52
2019-03-06T00:33:59.331Z,6.49
2019-03-06T00:36:31.808Z,6.46
2019-03-06T00:39:02.165Z,6.44
2019-03-06T00:41:41.086Z,6.38
2019-03-06T00:44:12.414Z,6.27
2019-03-06T00:46:44.331Z,6.23
2019-03-06T00:49:14.595Z,6.14
2019-03-06T00:51:47.939Z,6.14
2019-03-06T00:54:19.850Z,6.12
2019-03-06T00:57:00.508Z,6.07
2019-03-06T00:59:29.307Z,6.02
2019-03-06T01:02:05.258Z,5.99
2019-03-06T01:05:33.099Z,5.99
2019-03-06T01:07:09.516Z,5.97
2019-03-06T01:09:39.812Z,6.00
2019-03-06T01:12:17.346Z,6.01
2019-03-06T01:14:47.936Z,5.99
2019-03-06T01:17:18.514Z,5.98
2019-03-06T01:19:49.474Z,5.98
2019-03-06T01:22:24.467Z,5.98
2019-03-06T01:24:54.784Z,5.98
2019-03-06T01:27:27.939Z,5.99
2019-03-06T01:29:59.881Z,6.00
2019-03-06T01:32:30.648Z,6.02
2019-03-06T01:35:28.984Z,6.03
2019-03-06T01:38:29.208Z,6.05
2019-03-06T01:41:21.486Z,6.08
2019-03-06T01:44:01.180Z,6.09
2019-03-06T01:46:32.281Z,6.08
2019-03-06T01:49:04.035Z,6.11
2019-03-06T01:51:36.547Z,6.10
2019-03-06T01:54:11.379Z,6.11
2019-03-06T01:56:42.475Z,6.12
2019-03-06T01:59:17.952Z,6.12
2019-03-06T02:01:46.549Z,6.09
2019-03-06T02:04:44.570Z,6.09
2019-03-06T02:07:09.718Z,6.13
2019-03-06T02:09:40.291Z,6.14
2019-03-06T02:12:11.008Z,6.11
2019-03-06T02:14:41.396Z,6.11
2019-03-06T02:17:13.766Z,6.15
2019-03-06T02:19:44.350Z,6.15
2019-03-06T02:22:16.493Z,6.15
2019-03-06T02:24:46.970Z,6.18
2019-03-06T02:27:19.271Z,6.19
2019-03-06T02:30:15.647Z,6.21
2019-03-06T02:32:43.059Z,6.21
2019-03-06T02:35:15.779Z,6.21
2019-03-06T02:37:47.255Z,6.21
2019-03-06T02:40:20.365Z,6.20
2019-03-06T02:42:50.845Z,6.20
2019-03-06T02:45:25.124Z,6.20
2019-03-06T02:47:55.490Z,6.25
2019-03-06T02:50:28.593Z,6.24
2019-03-06T02:52:58.857Z,6.23
2019-03-06T02:55:33.248Z,6.24
2019-03-06T02:58:25.622Z,6.25
2019-03-06T03:01:21.113Z,6.22
2019-03-06T03:04:18.568Z,6.21
2019-03-06T03:07:01.271Z,6.26
2019-03-06T03:09:36.539Z,6.29
2019-03-06T03:12:07.219Z,6.29
2019-03-06T03:14:41.748Z,6.29
2019-03-06T03:17:12.366Z,6.33
2019-03-06T03:19:46.903Z,6.32
2019-03-06T03:22:18.781Z,6.40
2019-03-06T03:24:54.980Z,6.40
2019-03-06T03:27:21.689Z,6.38
2019-03-06T03:29:55.760Z,6.40
2019-03-06T03:32:26.350Z,6.47
2019-03-06T03:34:58.197Z,6.47
2019-03-06T03:37:28.822Z,6.46
2019-03-06T03:40:04.112Z,6.49
2019-03-06T03:42:34.691Z,6.48
2019-03-06T03:45:07.683Z,6.58
2019-03-06T03:47:37.949Z,6.68
2019-03-06T03:50:10.427Z,6.65
2019-03-06T03:52:42.857Z,6.58
2019-03-06T03:55:15.274Z,6.59
2019-03-06T03:57:45.709Z,6.69
2019-03-06T04:00:16.765Z,6.75
2019-03-06T04:02:48.941Z,6.77
2019-03-06T04:05:25.725Z,6.85
2019-03-06T04:07:56.121Z,6.86
2019-03-06T04:10:28.063Z,6.88
2019-03-06T04:12:58.704Z,6.97
2019-03-06T04:15:30.080Z,6.95
2019-03-06T04:18:00.724Z,7.06
2019-03-06T04:20:31.062Z,7.06
2019-03-06T04:23:01.356Z,7.07
2019-03-06T04:25:37.193Z,7.13
2019-03-06T04:28:07.815Z,7.11
2019-03-06T04:30:50.041Z,7.12
2019-03-06T04:33:21.949Z,7.17
2019-03-06T04:35:52.274Z,7.17
2019-03-06T04:38:23.071Z,7.24
2019-03-06T04:40:55.660Z,7.15
2019-03-06T04:43:30.625Z,6.99
2019-03-06T04:46:04.985Z,6.96
2019-03-06T04:48:36.671Z,7.03
2019-03-06T04:51:07.056Z,6.95
2019-03-06T04:53:37.846Z,6.90
2019-03-06T04:56:13.764Z,6.90
2019-03-06T04:58:43.490Z,7.01
2019-03-06T05:01:15.222Z,7.11
2019-03-06T05:03:45.524Z,7.13
2019-03-06T05:06:30.795Z,7.22
2019-03-06T05:08:52.662Z,7.18
2019-03-06T05:11:26.842Z,7.15
2019-03-06T05:13:59.048Z,7.20
2019-03-06T05:17:12.834Z,7.19
2019-03-06T05:20:15.819Z,7.23
2019-03-06T05:22:26.106Z,7.21
2019-03-06T05:24:57.981Z,7.22
2019-03-06T05:27:30.284Z,7.22
2019-03-06T05:30:07.893Z,7.35
2019-03-06T05:32:38.865Z,7.35
2019-03-06T05:35:34.201Z,7.37
2019-03-06T05:38:18.222Z,7.38
2019-03-06T05:41:00.352Z,7.43
2019-03-06T05:43:25.978Z,7.42
2019-03-06T05:45:56.523Z,7.43
2019-03-06T05:48:28.593Z,7.34
2019-03-06T05:51:02.091Z,7.25
2019-03-06T05:53:32.666Z,7.29
2019-03-06T05:56:03.115Z,7.42
2019-03-06T05:58:33.720Z,7.49
2019-03-06T06:01:13.093Z,7.53
2019-03-06T06:03:45.077Z,7.59
2019-03-06T06:06:15.385Z,7.61
2019-03-06T06:08:45.816Z,7.61
2019-03-06T06:11:16.350Z,7.67
2019-03-06T06:13:46.962Z,7.72
2019-03-06T06:16:21.101Z,7.68
2019-03-06T06:18:52.371Z,7.73
2019-03-06T06:21:41.139Z,7.78
2019-03-06T06:24:31.434Z,7.81
2019-03-06T06:27:06.282Z,7.81
2019-03-06T06:29:37.425Z,7.87
2019-03-06T06:32:11.815Z,7.94
2019-03-06T06:34:42.491Z,8.02
2019-03-06T06:37:14.695Z,8.08
2019-03-06T06:39:44.991Z,8.07
2019-03-06T06:42:19.641Z,8.07
2019-03-06T06:44:51.671Z,8.11
2019-03-06T06:47:23.696Z,8.18
2019-03-06T06:49:54.181Z,8.18
2019-03-06T06:53:21.066Z,8.20
2019-03-06T06:56:06.156Z,8.31
2019-03-06T06:59:39.803Z,8.33
2019-03-06T07:02:09.090Z,8.33
2019-03-06T07:05:35.825Z,8.36
2019-03-06T07:08:32.019Z,8.41
2019-03-06T07:11:25.593Z,8.48
2019-03-06T07:14:24.367Z,8.52
2019-03-06T07:17:12.516Z,8.53
2019-03-06T07:20:04.779Z,8.53
2019-03-06T07:22:54.437Z,8.56
2019-03-06T07:25:42.482Z,8.58
2019-03-06T07:28:35.832Z,8.60
2019-03-06T07:31:38.440Z,8.63
2019-03-06T07:34:19.349Z,8.65
2019-03-06T07:37:00.092Z,8.68
2019-03-06T07:39:35.217Z,8.73
2019-03-06T07:42:23.392Z,8.76
2019-03-06T07:45:55.316Z,8.83
2019-03-06T07:48:34.583Z,8.91
2019-03-06T07:51:37.583Z,9.02
2019-03-06T07:54:26.020Z,9.18
2019-03-06T07:57:07.103Z,9.37
2019-03-06T07:59:37.664Z,9.42
2019-03-06T08:02:15.541Z,9.47
2019-03-06T08:04:52.339Z,9.56
2019-03-06T08:07:30.946Z,9.68
2019-03-06T08:10:10.511Z,9.84
2019-03-06T08:13:00.029Z,9.91
2019-03-06T08:16:04.924Z,9.96
2019-03-06T08:19:05.410Z,10.27
2019-03-06T08:21:49.209Z,10.55
2019-03-06T08:24:40.958Z,10.80
2019-03-06T08:27:28.528Z,10.93
2019-03-06T08:29:52.043Z,11.52
2019-03-06T08:32:41.742Z,12.38
2019-03-06T08:35:12.054Z,12.54
2019-03-06T08:37:44.618Z,12.95
2019-03-06T08:40:15.632Z,13.22
2019-03-06T08:42:48.562Z,13.56
2019-03-06T08:45:23.510Z,13.04
2019-03-06T08:48:00.547Z,11.98
2019-03-06T08:50:48.619Z,11.37
2019-03-06T08:53:37.904Z,11.35
2019-03-06T08:56:25.798Z,11.78
2019-03-06T08:59:10.797Z,12.71
2019-03-06T09:02:04.789Z,14.34
2019-03-06T09:04:55.154Z,15.16
2019-03-06T09:07:48.303Z,14.51
2019-03-06T09:10:47.547Z,13.71
2019-03-06T09:13:43.819Z,13.13
2019-03-06T09:16:33.505Z,12.64
2019-03-06T09:19:33.196Z,12.16
2019-03-06T09:22:26.517Z,11.67
2019-03-06T09:25:23.401Z,11.58
2019-03-06T09:28:12.893Z,11.74
2019-03-06T09:31:04.641Z,11.82
2019-03-06T09:34:01.611Z,11.84
2019-03-06T09:36:37.764Z,11.87
2019-03-06T09:39:29.292Z,11.97
2019-03-06T09:42:18.592Z,11.91
2019-03-06T09:45:20.747Z,11.95
2019-03-06T09:48:15.287Z,12.12
2019-03-06T09:51:03.360Z,12.31
2019-03-06T09:53:50.872Z,12.94
2019-03-06T09:56:55.875Z,13.65
2019-03-06T09:59:31.070Z,15.67
2019-03-06T10:02:19.114Z,15.03
2019-03-06T10:05:10.722Z,14.53
2019-03-06T10:07:53.180Z,14.02
2019-03-06T10:10:57.253Z,13.65
2019-03-06T10:13:42.125Z,13.57
2019-03-06T10:16:26.168Z,13.53
2019-03-06T10:19:11.263Z,13.62
2019-03-06T10:21:43.149Z,13.43
2019-03-06T10:24:14.892Z,13.32
2019-03-06T10:26:45.190Z,13.22
2019-03-06T10:29:15.803Z,13.50
2019-03-06T10:31:46.188Z,13.73
2019-03-06T10:34:17.376Z,13.90
2019-03-06T10:36:51.001Z,13.94
2019-03-06T10:39:22.205Z,13.83
2019-03-06T10:41:52.529Z,13.83
2019-03-06T10:44:29.619Z,14.03
2019-03-06T10:47:00.064Z,14.03
2019-03-06T10:49:30.363Z,14.34
2019-03-06T10:52:00.715Z,16.12
2019-03-06T10:54:32.171Z,18.55
2019-03-06T10:57:04.006Z,20.60
2019-03-06T10:59:36.133Z,19.48
2019-03-06T11:02:06.785Z,17.61
2019-03-06T11:04:54.797Z,16.56
2019-03-06T11:07:26.938Z,16.48
2019-03-06T11:09:57.740Z,16.33
2019-03-06T11:12:29.636Z,16.50
2019-03-06T11:14:59.931Z,16.21
2019-03-06T11:17:37.847Z,16.25
2019-03-06T11:20:10.814Z,15.93
2019-03-06T11:22:41.339Z,15.93
2019-03-06T11:25:13.296Z,15.47
2019-03-06T11:27:44.557Z,15.03
2019-03-06T11:30:25.806Z,14.90
2019-03-06T11:32:57.840Z,14.90
2019-03-06T11:35:29.095Z,15.13
2019-03-06T11:38:10.725Z,15.61
2019-03-06T11:40:37.284Z,15.98
2019-03-06T11:43:10.639Z,16.21
2019-03-06T11:45:41.896Z,16.32
2019-03-06T11:48:13.103Z,16.30
2019-03-06T11:50:44.072Z,16.22
2019-03-06T11:53:14.883Z,15.99
2019-03-06T11:55:45.722Z,16.22
2019-03-06T11:58:17.924Z,16.21
2019-03-06T12:00:48.613Z,16.34
2019-03-06T12:03:23.452Z,15.94
2019-03-06T12:05:55.642Z,15.84
2019-03-06T12:08:26.772Z,15.78
2019-03-06T12:10:57.136Z,15.78
2019-03-06T12:13:27.479Z,15.50
2019-03-06T12:15:58.318Z,15.40
2019-03-06T12:18:29.216Z,15.37
2019-03-06T12:21:00.756Z,15.43
2019-03-06T12:23:31.881Z,15.70
2019-03-06T12:26:02.203Z,15.84
2019-03-06T12:28:33.112Z,15.90
2019-03-06T12:31:11.828Z,15.47
2019-03-06T12:33:42.354Z,15.47
2019-03-06T12:36:21.403Z,15.33
2019-03-06T12:38:48.918Z,15.01
2019-03-06T12:41:23.791Z,15.07
2019-03-06T12:43:54.080Z,15.32
2019-03-06T12:46:27.992Z,14.97
2019-03-06T12:49:04.314Z,15.06
2019-03-06T12:51:36.570Z,14.78
2019-03-06T12:54:09.074Z,14.56
2019-03-06T12:56:39.540Z,14.31
2019-03-06T12:59:10.226Z,14.20
2019-03-06T13:01:43.721Z,14.10
2019-03-06T13:04:14.088Z,13.99
2019-03-06T13:06:55.654Z,13.97
2019-03-06T13:09:22.259Z,14.16
2019-03-06T13:11:55.574Z,14.17
2019-03-06T13:14:26.618Z,14.00
2019-03-06T13:16:58.540Z,13.95
2019-03-06T13:19:29.105Z,14.05
2019-03-06T13:21:59.557Z,14.22
2019-03-06T13:24:29.953Z,14.42
2019-03-06T13:29:36.838Z,14.56
2019-03-06T13:32:11.638Z,14.54
2019-03-06T13:34:50.775Z,14.64
2019-03-06T13:37:19.230Z,14.75
2019-03-06T13:39:49.616Z,14.60
2019-03-06T13:42:19.942Z,14.55
2019-03-06T13:44:50.220Z,14.55
2019-03-06T13:47:22.897Z,14.42
2019-03-06T13:49:55.200Z,14.22
2019-03-06T13:52:27.092Z,14.19
2019-03-06T13:54:57.426Z,14.14
2019-03-06T13:57:29.215Z,14.18
2019-03-06T13:59:59.708Z,14.16
2019-03-06T14:02:30.702Z,14.18
2019-03-06T14:05:01.148Z,14.10
2019-03-06T14:07:33.320Z,14.08
2019-03-06T14:10:04.140Z,14.08
2019-03-06T14:12:34.666Z,14.02
2019-03-06T14:15:05.821Z,13.93
2019-03-06T14:17:37.927Z,13.80
2019-03-06T14:20:09.977Z,13.44
2019-03-06T14:22:44.204Z,13.03
2019-03-06T14:25:18.211Z,12.77
2019-03-06T14:27:52.328Z,12.55
2019-03-06T14:30:23.064Z,12.13
2019-03-06T14:32:56.000Z,11.35
2019-03-06T14:35:27.169Z,11.35
2019-03-06T14:38:02.702Z,11.24
2019-03-06T14:40:32.833Z,11.00
2019-03-06T14:43:07.583Z,10.54
2019-03-06T14:45:37.985Z,10.54
2019-03-06T14:48:20.601Z,10.34
2019-03-06T14:50:47.815Z,10.05
2019-03-06T14:53:24.709Z,9.89
2019-03-06T14:55:56.951Z,9.94
2019-03-06T14:58:32.028Z,9.98
2019-03-06T15:01:02.511Z,9.98
2019-03-06T15:03:32.838Z,10.00
2019-03-06T15:06:03.341Z,9.99
2019-03-06T15:08:33.984Z,9.97
2019-03-06T15:11:08.248Z,9.95
2019-03-06T15:13:51.504Z,9.93
2019-03-06T15:16:23.626Z,10.07
2019-03-06T15:18:58.547Z,10.16
2019-03-06T15:21:29.968Z,10.17
2019-03-06T15:24:00.436Z,10.31
2019-03-06T15:26:34.547Z,10.37
2019-03-06T15:29:05.081Z,10.41
2019-03-06T15:31:36.297Z,10.34
2019-03-06T15:34:10.388Z,10.29
2019-03-06T15:36:42.684Z,10.23
2019-03-06T15:39:30.121Z,10.26
2019-03-06T15:42:05.040Z,10.24
2019-03-06T15:44:38.050Z,10.30
2019-03-06T15:47:08.612Z,10.32
2019-03-06T15:49:38.933Z,10.30
2019-03-06T15:52:10.990Z,10.35
2019-03-06T15:54:43.047Z,10.36
2019-03-06T15:57:15.049Z,10.31
2019-03-06T15:59:46.514Z,10.38
2019-03-06T16:02:16.823Z,10.37
2019-03-06T16:04:52.386Z,10.39
2019-03-06T16:07:26.386Z,10.41
2019-03-06T16:09:59.771Z,10.43
2019-03-06T16:12:30.095Z,10.46
2019-03-06T16:15:03.327Z,10.46
2019-03-06T16:17:34.175Z,10.36
2019-03-06T16:20:10.107Z,10.36
2019-03-06T16:22:41.560Z,10.32
2019-03-06T16:25:17.372Z,10.32
2019-03-06T16:27:49.895Z,10.26
2019-03-06T16:30:21.186Z,10.30
2019-03-06T16:32:53.618Z,10.24
2019-03-06T16:35:29.188Z,10.16
2019-03-06T16:38:00.113Z,9.99
2019-03-06T16:40:33.526Z,9.85
2019-03-06T16:43:04.735Z,9.81
2019-03-06T16:45:42.099Z,9.77
2019-03-06T16:48:12.360Z,9.81
2019-03-06T16:50:49.035Z,9.83
2019-03-06T16:53:19.241Z,9.88
2019-03-06T16:55:58.619Z,9.77
2019-03-06T16:58:28.619Z,9.69
2019-03-06T17:01:02.091Z,9.61
2019-03-06T17:03:33.464Z,9.63
2019-03-06T17:06:11.774Z,9.63
2019-03-06T17:08:42.403Z,9.77
2019-03-06T17:11:16.814Z,9.77
2019-03-06T17:13:47.224Z,9.75
2019-03-06T17:16:21.036Z,9.63
2019-03-06T17:18:51.503Z,9.59
2019-03-06T17:21:22.170Z,9.52
2019-03-06T17:23:55.882Z,9.52
2019-03-06T17:26:32.472Z,9.49
2019-03-06T17:29:12.168Z,9.55
2019-03-06T17:31:45.152Z,9.57
2019-03-06T17:34:15.624Z,9.58
2019-03-06T17:37:24.547Z,9.62
2019-03-06T17:40:05.836Z,9.61
2019-03-06T17:42:36.598Z,9.62
2019-03-06T17:45:09.390Z,9.62
2019-03-06T17:47:39.818Z,9.61
2019-03-06T17:50:15.876Z,9.59
2019-03-06T17:52:48.119Z,9.59
2019-03-06T17:55:21.657Z,9.58
2019-03-06T17:57:53.315Z,9.58
2019-03-06T18:00:53.376Z,9.59
2019-03-06T18:03:42.014Z,9.58
2019-03-06T18:06:14.280Z,9.57
2019-03-06T18:08:50.763Z,9.58
2019-03-06T18:11:22.545Z,9.57
2019-03-06T18:14:00.894Z,9.56
2019-03-06T18:16:31.231Z,9.56
2019-03-06T18:19:06.410Z,9.55
2019-03-06T18:21:36.190Z,9.55
2019-03-06T18:24:15.699Z,9.56
2019-03-06T18:26:49.933Z,9.60
2019-03-06T18:29:27.396Z,9.64
2019-03-06T18:31:57.686Z,9.64
2019-03-06T18:34:31.076Z,9.65
2019-03-06T18:37:03.064Z,9.64
2019-03-06T18:39:38.513Z,9.65
2019-03-06T18:42:10.793Z,9.71
2019-03-06T18:45:05.238Z,9.74
2019-03-06T18:47:37.416Z,9.75
2019-03-06T18:50:31.043Z,9.77
2019-03-06T18:53:03.723Z,9.83
2019-03-06T18:55:41.188Z,9.82
2019-03-06T18:58:13.352Z,9.85
2019-03-06T19:00:45.334Z,9.88
2019-03-06T19:03:16.501Z,9.90
2019-03-06T19:05:55.805Z,9.93
2019-03-06T19:08:31.675Z,10.01
2019-03-06T19:11:16.607Z,10.04
2019-03-06T19:13:41.277Z,10.05
2019-03-06T19:16:14.425Z,10.01
2019-03-06T19:18:55.466Z,10.11
2019-03-06T19:21:27.607Z,10.26
2019-03-06T19:24:00.839Z,10.30
2019-03-06T19:26:33.029Z,10.32
2019-03-06T19:29:08.030Z,10.35
2019-03-06T19:31:38.366Z,10.36
2019-03-06T19:34:16.778Z,10.43
2019-03-06T19:36:45.766Z,10.49
2019-03-06T19:39:23.206Z,10.44
2019-03-06T19:41:53.719Z,10.38
2019-03-06T19:47:06.578Z,10.35
2019-03-06T19:49:44.256Z,10.47
2019-03-06T19:52:21.343Z,10.51
2019-03-06T19:54:50.667Z,10.50
2019-03-06T19:57:21.388Z,10.46
2019-03-06T19:59:56.611Z,10.56
2019-03-06T20:02:30.603Z,10.48
2019-03-06T20:07:50.415Z,10.55
2019-03-06T20:10:27.086Z,10.52
2019-03-06T20:12:59.354Z,10.51
2019-03-06T20:15:29.773Z,10.38
2019-03-06T20:18:00.430Z,10.37
2019-03-06T20:20:30.944Z,10.37
2019-03-06T20:23:01.816Z,10.39
2019-03-06T20:25:57.029Z,10.25
2019-03-06T20:28:29.327Z,10.10
2019-03-06T20:31:24.188Z,10.05
2019-03-06T20:33:56.634Z,9.97
2019-03-06T20:42:28.175Z,9.90
2019-03-06T20:45:13.962Z,9.90
2019-03-06T20:47:45.774Z,9.85
2019-03-06T20:50:24.210Z,9.80
2019-03-06T20:53:13.987Z,9.80
2019-03-06T20:55:45.171Z,9.79
2019-03-06T20:58:15.872Z,9.79
2019-03-06T21:00:46.596Z,9.76
2019-03-06T21:03:18.670Z,9.74
2019-03-06T21:05:50.538Z,9.74
2019-03-06T21:08:59.730Z,9.73
2019-03-06T21:11:22.890Z,9.73
2019-03-06T21:13:57.208Z,9.72
2019-03-06T21:16:27.196Z,9.69
2019-03-06T21:18:59.011Z,9.70
2019-03-06T21:21:29.442Z,9.71
2019-03-06T21:24:06.174Z,9.71
2019-03-06T21:26:36.764Z,9.71
2019-03-06T21:29:28.631Z,9.72
2019-03-06T21:31:47.259Z,9.72
2019-03-06T21:34:41.628Z,9.71
2019-03-06T21:36:50.239Z,9.71
2019-03-06T21:39:36.826Z,9.70
2019-03-06T21:41:59.397Z,9.71
2019-03-06T21:44:34.149Z,9.71
2019-03-06T21:47:05.623Z,9.74
2019-03-06T21:49:39.770Z,9.76
2019-03-06T21:52:10.522Z,9.79
2019-03-06T21:54:59.687Z,9.87
2019-03-06T21:57:31.190Z,9.90
2019-03-06T22:00:07.502Z,10.00
2019-03-06T22:02:40.072Z,10.06
2019-03-06T22:05:10.721Z,10.05
2019-03-06T22:07:57.008Z,10.05
2019-03-06T22:10:19.458Z,9.97
2019-03-06T22:13:05.486Z,9.97
2019-03-06T22:15:36.457Z,10.00
2019-03-06T22:18:13.701Z,9.95
2019-03-06T22:20:44.528Z,10.00
2019-03-06T22:23:16.575Z,9.95
2019-03-06T22:25:49.301Z,9.87
2019-03-06T22:28:19.687Z,9.81
2019-03-06T22:30:59.145Z,9.79
2019-03-06T22:36:41.372Z,9.73
2019-03-06T22:39:56.150Z,9.71
2019-03-06T22:42:39.574Z,9.75
2019-03-06T22:45:14.610Z,9.75
2019-03-06T22:48:24.917Z,9.71
2019-03-06T22:50:40.254Z,9.67
2019-03-06T22:53:22.180Z,9.61
2019-03-06T22:55:52.571Z,9.63
2019-03-06T22:58:31.682Z,9.70
2019-03-06T23:01:14.885Z,9.74
2019-03-06T23:03:46.810Z,9.74
2019-03-06T23:07:10.298Z,9.68
2019-03-06T23:09:20.371Z,9.66
2019-03-06T23:12:17.207Z,9.63
2019-03-06T23:14:55.999Z,9.68
2019-03-06T23:17:25.914Z,9.76
2019-03-06T23:19:56.302Z,9.70
2019-03-06T23:22:28.207Z,9.68
2019-03-06T23:25:57.883Z,9.72
2019-03-06T23:27:39.481Z,9.68
2019-03-06T23:30:11.603Z,9.75
2019-03-06T23:32:42.161Z,9.76
2019-03-06T23:35:16.720Z,9.79
2019-03-06T23:37:47.801Z,9.82
2019-03-06T23:40:19.663Z,9.80
2019-03-06T23:42:50.408Z,9.86
2019-03-06T23:45:27.286Z,9.82
2019-03-06T23:47:58.358Z,9.74
2019-03-06T23:50:29.785Z,9.67
2019-03-06T23:53:06.595Z,9.57
2019-03-06T23:55:40.999Z,9.59
2019-03-06T23:58:11.755Z,9.66
